Bass, Arkansas
Current Conditions -  °F | °C
As of 2:14 AM on Tuesday 21 Oct 2014 (Local Time) from KHRO Reporting Station
Haze Haze  
Wind Chill: 54°   Ceiling: Unl
Heat Index: 54°   Visibility: 2.5mi
Dew Point: 54°   Wind: 5mph
Humidity: 100%   Direction: 340°NNW
Pressure: 30.09"   Gusts: NA
Location:  35.9°N, 93°W
Report Text: KHRO 210714Z AUTO 34004KT 2 1/2SM BR CLR 12/12 A3009 RMK AO2 T01220122
Loading
Personal Weather Stations






























Interactive Weather Map
Tropical Storm Tracking
New forecast layout! Learn more

10-Day Weather Forecast

Advertisements
Track Severe Weather on mobile